Time;durP1;ratioP1;P1;durP2;ratioP2;P2;SDS_P1;SDS_P2;PMS_P1;PMS_P2;Temp;Humidity;BMP_temperature;BMP_pressure;BME280_temperature;BME280_humidity;BME280_pressure;Samples;Min_cycle;Max_cycle;Signal;HPM_P1;HPM_P2
2022/04/06 00:02:12;;;;;;;8.90;3.40;;;;;;;14.64;51.75;100155.63;4997106;28;20422;-72
2022/04/06 00:04:38;;;;;;;9.10;3.65;;;;;;;14.65;51.45;100161.97;4999440;28;20042;-73
2022/04/06 00:07:05;;;;;;;7.78;3.70;;;;;;;14.66;51.33;100160.97;5002621;28;20077;-73
2022/04/06 00:09:32;;;;;;;7.18;3.45;;;;;;;14.64;51.32;100138.38;5007882;28;20129;-73
2022/04/06 00:11:59;;;;;;;6.82;3.30;;;;;;;14.64;51.41;100146.56;5005577;28;20132;-73
2022/04/06 00:14:25;;;;;;;9.18;3.60;;;;;;;14.63;51.69;100148.44;5007296;28;20566;-73
2022/04/06 00:16:52;;;;;;;5.82;3.10;;;;;;;14.62;51.63;100146.72;5009409;28;20285;-73
2022/04/06 00:19:19;;;;;;;6.32;2.85;;;;;;;14.62;51.32;100146.72;5009805;28;20046;-73
2022/04/06 00:21:45;;;;;;;5.30;3.15;;;;;;;14.63;51.54;100134.78;5008737;28;20050;-73
2022/04/06 00:24:12;;;;;;;6.97;3.22;;;;;;;14.63;51.45;100136.66;5009335;28;20545;-74
2022/04/06 00:26:39;;;;;;;7.20;3.40;;;;;;;14.62;51.51;100133.06;5009160;28;20124;-73
2022/04/06 00:29:06;;;;;;;6.93;3.53;;;;;;;14.62;51.45;100145.84;5005719;28;20069;-73
2022/04/06 00:31:32;;;;;;;7.63;3.00;;;;;;;14.61;51.15;100139.53;5005736;28;20054;-73
2022/04/06 00:33:59;;;;;;;6.22;3.45;;;;;;;14.61;51.38;100145.00;5003498;28;20441;-73
2022/04/06 00:36:26;;;;;;;6.18;3.40;;;;;;;14.61;51.35;100136.78;4993842;28;20050;-73
2022/04/06 00:38:52;;;;;;;6.15;3.38;;;;;;;14.61;50.93;100138.66;5008039;28;20057;-73
2022/04/06 00:41:20;;;;;;;6.60;3.42;;;;;;;14.59;51.32;100136.06;5007777;28;20125;-73
2022/04/06 00:44:09;;;;;;;5.80;3.30;;;;;;;14.59;50.77;100143.41;5006689;28;20545;-73
2022/04/06 00:46:36;;;;;;;5.18;3.13;;;;;;;14.58;51.08;100138.94;5006589;28;20053;-73
2022/04/06 00:49:04;;;;;;;7.28;3.53;;;;;;;14.59;50.78;100137.94;5010404;28;20444;-73
2022/04/06 00:51:31;;;;;;;6.53;3.40;;;;;;;14.59;50.94;100127.00;4997182;28;20085;-73
2022/04/06 00:53:58;;;;;;;6.88;3.47;;;;;;;14.59;51.12;100132.47;4994023;28;20137;-73
2022/04/06 00:56:25;;;;;;;7.30;3.63;;;;;;;14.57;50.90;100119.00;5005093;28;20046;-73
2022/04/06 00:58:52;;;;;;;6.13;3.42;;;;;;;14.56;51.09;100125.44;4999417;28;20133;-73
2022/04/06 01:01:19;;;;;;;7.65;3.70;;;;;;;14.56;51.05;100121.84;5009336;28;20053;-73
2022/04/06 01:03:45;;;;;;;5.57;3.08;;;;;;;14.56;51.13;100113.66;5008851;28;20054;-73
2022/04/06 01:06:12;;;;;;;6.07;3.20;;;;;;;14.54;50.97;100113.81;5005550;28;20080;-73
2022/04/06 01:08:39;;;;;;;6.20;3.25;;;;;;;14.56;51.07;100117.25;5001024;28;20100;-73
2022/04/06 01:11:06;;;;;;;6.43;3.40;;;;;;;14.54;50.62;100113.81;4997199;28;20058;-73
2022/04/06 01:13:32;;;;;;;6.43;3.47;;;;;;;14.53;50.63;100108.47;4998010;28;20062;-73
2022/04/06 01:15:59;;;;;;;5.25;3.10;;;;;;;14.53;50.83;100108.47;5008045;28;20169;-73
2022/04/06 01:18:25;;;;;;;6.93;3.15;;;;;;;14.54;50.75;100112.94;5004765;28;20084;-73
2022/04/06 01:20:52;;;;;;;6.63;3.28;;;;;;;14.52;50.62;100113.09;5008520;28;20049;-73
2022/04/06 01:23:19;;;;;;;7.47;2.60;;;;;;;14.52;50.63;100112.22;5006043;28;20093;-72
2022/04/06 01:25:49;;;;;;;5.28;3.08;;;;;;;14.52;50.79;100114.94;5007337;28;20464;-73
2022/04/06 01:28:16;;;;;;;6.72;2.80;;;;;;;14.50;50.84;100108.75;5008029;28;20136;-72
2022/04/06 01:30:46;;;;;;;5.65;3.05;;;;;;;14.49;50.66;100112.53;5010070;28;20054;-73
2022/04/06 01:33:12;;;;;;;8.23;3.08;;;;;;;14.49;50.92;100109.78;5007388;28;20081;-74
2022/04/06 01:35:41;;;;;;;7.35;2.70;;;;;;;14.49;50.93;100110.66;5001307;28;20058;-73
2022/04/06 01:38:08;;;;;;;5.90;2.67;;;;;;;14.49;50.70;100104.34;5001245;28;20338;-73
2022/04/06 01:40:35;;;;;;;4.97;2.80;;;;;;;14.48;50.65;100105.34;4995664;28;20104;-74
2022/04/06 01:43:02;;;;;;;8.07;2.97;;;;;;;14.48;50.58;100097.16;5007813;28;20935;-74
2022/04/06 01:45:28;;;;;;;6.47;2.70;;;;;;;14.48;50.55;100099.88;5004902;28;20170;-73
2022/04/06 01:47:55;;;;;;;6.40;2.83;;;;;;;14.46;50.52;100100.88;5009287;28;20064;-73
2022/04/06 01:53:07;;;;;;;4.32;2.20;;;;;;;14.44;50.33;100094.69;5004036;28;20386;-73
2022/04/06 01:55:33;;;;;;;5.10;2.50;;;;;;;14.45;50.25;100087.34;5008271;28;20665;-74
2022/04/06 01:58:00;;;;;;;5.30;2.60;;;;;;;14.44;50.06;100083.75;4999396;28;20560;-73
2022/04/06 02:00:52;;;;;;;4.10;2.25;;;;;;;14.45;49.63;100084.63;4995065;28;20054;-73
2022/04/06 02:03:19;;;;;;;3.47;2.20;;;;;;;14.41;50.34;100085.94;5007003;28;20375;-73
2022/04/06 02:05:46;;;;;;;6.10;2.20;;;;;;;14.41;50.36;100085.94;5009114;28;20050;-73
2022/04/06 02:08:13;;;;;;;8.88;2.25;;;;;;;14.41;50.34;100066.81;4998448;28;20057;-74
2022/04/06 02:10:39;;;;;;;5.97;2.60;;;;;;;14.40;50.44;100076.03;5006859;28;20131;-73
2022/04/06 02:13:06;;;;;;;3.85;2.25;;;;;;;14.41;50.16;100077.75;5006856;28;20073;-73
2022/04/06 02:15:33;;;;;;;7.88;2.72;;;;;;;14.40;50.01;100076.03;5006207;28;20095;-73
2022/04/06 02:18:00;;;;;;;6.72;2.50;;;;;;;14.39;50.03;100072.44;5002966;28;20112;-74
2022/04/06 02:20:27;;;;;;;7.88;2.80;;;;;;;14.39;50.28;100077.91;5004219;28;20050;-73
2022/04/06 02:22:53;;;;;;;4.63;2.40;;;;;;;14.41;49.94;100075.03;5010129;28;20123;-73
2022/04/06 02:25:20;;;;;;;4.72;2.30;;;;;;;14.40;49.87;100081.50;5006868;28;20112;-74
2022/04/06 02:27:49;;;;;;;4.82;2.30;;;;;;;14.41;50.21;100084.03;5024356;28;20053;-73
2022/04/06 02:30:17;;;;;;;3.70;2.35;;;;;;;14.40;49.85;100079.63;4997393;28;20090;-74
2022/04/06 02:32:44;;;;;;;4.38;2.08;;;;;;;14.38;50.24;100069.81;5009107;28;20145;-73
2022/04/06 02:35:12;;;;;;;8.07;2.50;;;;;;;14.39;50.14;100068.84;5000627;28;20053;-73
2022/04/06 02:37:41;;;;;;;6.18;2.25;;;;;;;14.38;49.76;100069.81;5009386;28;20564;-73
2022/04/06 02:40:10;;;;;;;6.10;2.30;;;;;;;14.39;50.07;100064.25;5004892;28;20046;-73
2022/04/06 02:42:37;;;;;;;5.13;2.45;;;;;;;14.39;50.00;100064.25;5001417;28;20081;-73
2022/04/06 02:45:04;;;;;;;5.35;2.28;;;;;;;14.39;49.48;100060.63;5004188;28;20061;-73
2022/04/06 02:47:31;;;;;;;3.58;2.20;;;;;;;14.37;50.05;100060.75;5005222;28;20049;-73
2022/04/06 02:49:57;;;;;;;5.20;2.28;;;;;;;14.37;49.90;100057.16;5005195;28;20473;-73
2022/04/06 02:52:24;;;;;;;5.78;2.40;;;;;;;14.38;49.81;100056.16;5006819;28;20057;-73
2022/04/06 02:54:52;;;;;;;3.80;2.20;;;;;;;14.39;49.49;100047.84;5006782;28;20140;-73
2022/04/06 02:57:18;;;;;;;6.00;2.42;;;;;;;14.39;49.47;100064.25;5007644;28;20046;-73
2022/04/06 02:59:45;;;;;;;5.78;2.10;;;;;;;14.38;49.71;100057.06;5005712;28;20138;-73
2022/04/06 03:02:12;;;;;;;6.35;2.50;;;;;;;14.37;49.69;100049.81;5007937;28;20045;-73
2022/04/06 03:04:38;;;;;;;6.30;2.70;;;;;;;14.36;49.79;100048.09;4992451;28;20125;-73
2022/04/06 03:07:05;;;;;;;4.03;2.25;;;;;;;14.37;49.56;100046.22;4996582;28;20135;-73
2022/04/06 03:09:32;;;;;;;4.90;2.70;;;;;;;14.37;49.75;100055.28;5004818;28;20050;-74
2022/04/06 03:11:59;;;;;;;6.28;2.53;;;;;;;14.36;49.67;100045.38;5008776;28;20050;-73
2022/04/06 03:14:26;;;;;;;6.13;2.65;;;;;;;14.36;49.59;100052.69;5003881;28;20413;-73
2022/04/06 03:16:52;;;;;;;4.80;2.38;;;;;;;14.36;49.89;100061.75;5000837;28;20039;-73
2022/04/06 03:19:19;;;;;;;6.32;2.63;;;;;;;14.36;49.42;100052.69;4996225;28;20046;-73
2022/04/06 03:21:45;;;;;;;4.80;2.60;;;;;;;14.34;49.56;100052.84;5005375;28;20586;-73
2022/04/06 03:24:12;;;;;;;5.35;2.67;;;;;;;14.34;49.24;100050.09;5002071;28;20560;-73
2022/04/06 03:26:38;;;;;;;6.47;3.00;;;;;;;14.34;49.60;100054.69;5003404;28;20137;-73
2022/04/06 03:29:05;;;;;;;5.88;2.75;;;;;;;14.34;49.29;100049.25;5007046;28;20116;-74
2022/04/06 03:31:31;;;;;;;7.93;3.25;;;;;;;14.32;49.68;100045.81;5010181;28;20080;-73
2022/04/06 03:33:58;;;;;;;5.55;2.83;;;;;;;14.32;49.45;100041.22;5006562;28;20042;-73
2022/04/06 03:36:25;;;;;;;5.97;3.00;;;;;;;14.32;49.66;100043.97;5005557;28;20531;-73
2022/04/06 03:38:51;;;;;;;6.28;3.22;;;;;;;14.33;49.30;100039.34;5010290;28;20529;-74
2022/04/06 03:41:18;;;;;;;6.25;3.30;;;;;;;14.32;49.44;100035.75;5008470;28;20052;-73
2022/04/06 03:43:44;;;;;;;4.18;2.80;;;;;;;14.32;49.44;100030.31;5005798;28;20056;-73
2022/04/06 03:46:11;;;;;;;6.18;3.00;;;;;;;14.32;49.15;100029.44;5024783;28;20165;-72
2022/04/06 03:48:38;;;;;;;6.88;3.38;;;;;;;14.32;49.45;100029.44;5003513;28;20108;-73
2022/04/06 03:51:04;;;;;;;5.25;2.70;;;;;;;14.31;49.34;100031.31;5011804;28;20104;-73
2022/04/06 03:53:31;;;;;;;5.68;3.03;;;;;;;14.30;49.16;100029.56;5011477;28;20080;-73
2022/04/06 03:55:58;;;;;;;5.63;2.97;;;;;;;14.30;49.17;100031.44;5001635;28;20477;-73
2022/04/06 03:58:24;;;;;;;6.03;2.88;;;;;;;14.30;49.26;100032.31;4993397;28;20082;-73
2022/04/06 04:00:51;;;;;;;6.28;2.75;;;;;;;14.30;49.51;100029.56;5009620;28;20085;-74
2022/04/06 04:03:17;;;;;;;5.50;2.67;;;;;;;14.30;49.35;100025.97;5010876;28;20128;-74
2022/04/06 04:05:44;;;;;;;5.72;2.83;;;;;;;14.30;48.99;100028.72;4994042;28;20054;-73
2022/04/06 04:08:11;;;;;;;8.18;3.10;;;;;;;14.28;48.79;100020.66;5000010;28;20058;-74
2022/04/06 04:10:37;;;;;;;4.60;2.45;;;;;;;14.29;48.83;100022.38;5003553;28;20104;-73
2022/04/06 04:13:04;;;;;;;5.72;2.38;;;;;;;14.29;49.16;100021.53;5002584;28;20058;-74
2022/04/06 04:15:31;;;;;;;5.90;2.95;;;;;;;14.28;48.85;100015.19;5007330;28;20485;-74
2022/04/06 04:17:58;;;;;;;6.28;2.70;;;;;;;14.29;48.90;100019.66;5009937;28;20050;-73
2022/04/06 04:20:25;;;;;;;4.07;2.47;;;;;;;14.26;48.35;100014.47;5005175;28;20050;-73
2022/04/06 04:22:51;;;;;;;6.00;2.38;;;;;;;14.27;48.56;100016.22;5011635;28;20493;-73
2022/04/06 04:25:18;;;;;;;4.97;2.55;;;;;;;14.27;48.66;100015.34;5007326;28;20565;-73
2022/04/06 04:27:45;;;;;;;5.30;2.53;;;;;;;14.27;48.77;100012.63;5002097;28;20085;-73
2022/04/06 04:30:11;;;;;;;5.72;2.65;;;;;;;14.28;48.52;100014.34;4999431;28;20057;-73
2022/04/06 04:32:39;;;;;;;6.43;2.47;;;;;;;14.28;48.22;100011.59;5005385;28;20054;-73
2022/04/06 04:35:06;;;;;;;5.20;2.55;;;;;;;14.26;48.22;100006.28;4994341;28;20062;-73
2022/04/06 04:37:36;;;;;;;4.78;2.30;;;;;;;14.27;48.04;100015.34;5000179;28;20082;-74
2022/04/06 04:40:03;;;;;;;5.53;2.92;;;;;;;14.26;48.00;100011.75;5004601;28;20451;-73
2022/04/06 04:42:30;;;;;;;4.95;2.50;;;;;;;14.26;48.39;100016.34;5002196;28;20132;-73
2022/04/06 04:44:57;;;;;;;6.80;2.40;;;;;;;14.25;48.34;100010.03;5006773;28;20057;-73
2022/04/06 04:47:24;;;;;;;5.32;2.17;;;;;;;14.26;48.02;100017.22;5011442;28;20438;-73
2022/04/06 04:49:50;;;;;;;6.57;2.58;;;;;;;14.26;47.84;100010.88;5003977;28;20498;-73
2022/04/06 04:52:17;;;;;;;4.75;2.83;;;;;;;14.25;48.02;100014.63;5007685;28;20284;-74
2022/04/06 04:54:44;;;;;;;5.30;2.28;;;;;;;14.26;47.78;100016.34;5003757;28;20133;-72
2022/04/06 04:57:10;;;;;;;6.05;2.40;;;;;;;14.25;48.12;100020.94;4997349;28;20121;-73
2022/04/06 04:59:37;;;;;;;7.05;2.58;;;;;;;14.24;47.88;100013.78;5009657;28;20046;-73
2022/04/06 05:02:04;;;;;;;4.45;2.47;;;;;;;14.25;47.86;100015.47;5009659;28;20088;-73
2022/04/06 05:04:30;;;;;;;4.85;2.08;;;;;;;14.25;47.85;100014.63;5009716;28;20462;-73
2022/04/06 05:06:57;;;;;;;6.93;2.42;;;;;;;14.24;47.89;100012.94;5008361;28;20096;-73
2022/04/06 05:09:24;;;;;;;5.45;2.30;;;;;;;14.24;47.55;100010.19;5004374;28;20085;-73
2022/04/06 05:11:50;;;;;;;5.32;2.53;;;;;;;14.24;47.58;100004.75;5007144;28;20054;-73
2022/04/06 05:14:17;;;;;;;6.43;2.65;;;;;;;14.23;47.53;100005.75;5004941;28;20054;-73
2022/04/06 05:16:44;;;;;;;6.60;3.17;;;;;;;14.24;47.70;100004.75;5008381;28;20137;-73
2022/04/06 05:19:10;;;;;;;5.97;2.63;;;;;;;14.23;47.45;100003.00;5007981;28;20338;-73
2022/04/06 05:21:37;;;;;;;6.65;2.95;;;;;;;14.24;47.51;100000.13;5009046;28;20088;-73
2022/04/06 05:24:04;;;;;;;7.13;3.55;;;;;;;14.24;47.41;100008.31;5008010;28;20057;-73
2022/04/06 05:26:37;;;;;;;7.68;2.90;;;;;;;14.23;47.75;100003.00;5000083;28;20406;-73
2022/04/06 05:29:03;;;;;;;5.35;2.70;;;;;;;14.22;47.73;100010.34;5009462;28;20144;-73
2022/04/06 05:31:30;;;;;;;5.53;2.90;;;;;;;14.22;48.06;100012.19;5008682;28;20041;-72
2022/04/06 05:33:57;;;;;;;6.53;3.58;;;;;;;14.24;47.75;100012.94;5009117;28;20056;-72
2022/04/06 05:36:25;;;;;;;5.70;3.00;;;;;;;14.21;47.54;100016.81;5001722;28;20359;-72
2022/04/06 05:38:51;;;;;;;5.45;2.83;;;;;;;14.22;47.64;100020.41;5009087;28;20084;-73
2022/04/06 05:41:18;;;;;;;5.97;2.67;;;;;;;14.22;47.77;100014.94;5009644;28;20050;-73
2022/04/06 05:43:45;;;;;;;7.50;2.95;;;;;;;14.21;47.85;100016.81;5007371;28;20050;-72
2022/04/06 05:46:11;;;;;;;4.78;2.65;;;;;;;14.22;47.92;100013.06;5006865;28;20387;-73
2022/04/06 05:48:38;;;;;;;6.22;2.65;;;;;;;14.23;48.29;100011.19;5000342;28;20129;-73
2022/04/06 05:51:05;;;;;;;4.50;2.65;;;;;;;14.23;47.99;100016.66;5002414;28;20093;-72
2022/04/06 05:53:31;;;;;;;6.65;2.70;;;;;;;14.22;48.05;100013.06;5005200;28;20069;-73
2022/04/06 05:55:58;;;;;;;5.13;2.50;;;;;;;14.23;48.11;100009.34;5007797;28;20054;-73
2022/04/06 05:58:25;;;;;;;4.93;2.40;;;;;;;14.24;47.76;100018.38;5008320;28;20057;-73
2022/04/06 06:00:51;;;;;;;4.28;2.42;;;;;;;14.23;47.80;100009.34;5005473;28;20398;-73
2022/04/06 06:03:18;;;;;;;4.63;2.35;;;;;;;14.25;47.92;100009.16;5005423;28;20121;-73
2022/04/06 06:05:44;;;;;;;5.60;2.63;;;;;;;14.26;47.68;100016.34;5007058;28;20050;-73
2022/04/06 06:08:17;;;;;;;5.10;2.33;;;;;;;14.24;47.88;100011.06;5005399;28;21241;-73
2022/04/06 06:10:44;;;;;;;4.90;2.08;;;;;;;14.26;47.94;100019.94;5008684;28;20092;-73
2022/04/06 06:13:10;;;;;;;5.60;2.33;;;;;;;14.27;47.55;100018.94;5003876;28;20180;-73
2022/04/06 06:15:37;;;;;;;6.55;2.35;;;;;;;14.27;47.62;100015.34;4999501;28;20477;-72
2022/04/06 06:18:04;;;;;;;5.70;2.30;;;;;;;14.28;47.73;100017.94;4998150;28;20046;-73
2022/04/06 06:20:31;;;;;;;5.15;2.10;;;;;;;14.26;47.88;100011.75;5007272;28;20130;-73
2022/04/06 06:22:57;;;;;;;8.35;2.35;;;;;;;14.28;47.78;100015.19;4998241;28;20128;-73
2022/04/06 06:25:24;;;;;;;4.95;2.20;;;;;;;14.27;47.39;99999.81;5006440;28;20279;-73
2022/04/06 06:27:50;;;;;;;5.63;1.95;;;;;;;14.29;47.72;100003.28;5004296;28;20398;-73
2022/04/06 06:30:17;;;;;;;3.53;1.98;;;;;;;14.30;47.66;100007.72;4997127;28;20452;-73
2022/04/06 06:32:45;;;;;;;5.05;2.10;;;;;;;14.30;47.68;100005.00;4998411;28;20050;-71
2022/04/06 06:35:13;;;;;;;5.60;2.25;;;;;;;14.31;47.44;100008.59;5007757;28;20054;-73
2022/04/06 06:37:48;;;;;;;4.63;2.00;;;;;;;14.35;47.19;100010.88;5000937;28;20130;-72
2022/04/06 06:40:20;;;;;;;6.78;2.47;;;;;;;14.34;47.34;100009.16;5007257;28;20115;-72
2022/04/06 06:42:47;;;;;;;5.20;2.47;;;;;;;14.32;47.21;100005.72;5001413;28;20054;-73
2022/04/06 06:45:14;;;;;;;5.18;2.28;;;;;;;14.32;47.32;100008.47;5004627;28;20540;-73
2022/04/06 06:47:41;;;;;;;5.63;2.50;;;;;;;14.32;47.72;99999.41;5008735;28;20413;-73
2022/04/06 06:50:10;;;;;;;5.57;2.20;;;;;;;14.34;47.01;100006.41;5005963;28;20062;-73
2022/04/06 06:52:37;;;;;;;5.47;2.30;;;;;;;14.32;47.38;100003.00;5007965;28;20077;-73
2022/04/06 06:55:09;;;;;;;5.75;2.13;;;;;;;14.30;47.55;99995.94;4999917;28;20081;-72
2022/04/06 06:57:36;;;;;;;3.30;2.08;;;;;;;14.32;46.91;99996.66;5008608;28;20096;-73
2022/04/06 07:00:07;;;;;;;4.53;2.00;;;;;;;14.33;46.97;99993.75;5007240;28;20433;-73
2022/04/06 07:02:33;;;;;;;4.20;1.92;;;;;;;14.30;47.21;99993.22;5006423;28;20157;-73
2022/04/06 07:05:00;;;;;;;7.50;2.40;;;;;;;14.31;47.26;99989.47;5008671;28;20129;-73
2022/04/06 07:07:26;;;;;;;4.53;2.00;;;;;;;14.31;47.35;99994.94;5006129;28;20123;-73
2022/04/06 07:09:53;;;;;;;5.65;2.35;;;;;;;14.30;47.23;99988.63;5009595;28;20077;-73
2022/04/06 07:12:20;;;;;;;5.50;2.13;;;;;;;14.31;47.23;99995.81;5008863;28;20112;-73
2022/04/06 07:14:50;;;;;;;5.30;2.40;;;;;;;14.30;47.44;99985.03;5010213;28;20116;-73
2022/04/06 07:17:17;;;;;;;6.10;2.30;;;;;;;14.31;47.11;99984.88;5011386;28;20057;-73
2022/04/06 07:19:45;;;;;;;5.57;2.10;;;;;;;14.31;47.05;99973.97;5003045;28;20062;-74
2022/04/06 07:22:12;;;;;;;6.55;2.28;;;;;;;14.30;46.98;99977.69;5011257;28;20104;-74
2022/04/06 07:24:40;;;;;;;5.40;2.45;;;;;;;14.31;47.33;99978.56;5011533;28;20050;-73
2022/04/06 07:27:06;;;;;;;6.45;2.83;;;;;;;14.31;47.11;99984.03;5003504;28;20050;-73
2022/04/06 07:29:33;;;;;;;4.90;2.70;;;;;;;14.32;47.35;99969.38;5011621;28;20493;-73
2022/04/06 07:31:59;;;;;;;4.30;2.30;;;;;;;14.31;46.98;99968.50;5009774;28;20046;-73
2022/04/06 07:34:26;;;;;;;5.00;2.45;;;;;;;14.31;47.17;99962.19;5007578;28;20050;-73
2022/04/06 07:36:53;;;;;;;4.07;2.00;;;;;;;14.31;46.94;99971.22;5014557;28;20042;-73
2022/04/06 07:39:19;;;;;;;4.03;1.83;;;;;;;14.30;47.26;99966.78;5009642;28;20501;-73
2022/04/06 07:41:46;;;;;;;3.80;1.85;;;;;;;14.31;47.29;99967.63;5010792;28;20053;-73
2022/04/06 07:44:12;;;;;;;4.45;2.00;;;;;;;14.30;46.95;99963.19;5005384;28;20056;-73
2022/04/06 07:46:39;;;;;;;3.35;1.83;;;;;;;14.30;47.17;99971.38;5007735;28;20100;-73
2022/04/06 07:49:07;;;;;;;3.90;1.77;;;;;;;14.30;47.34;99968.66;5010109;28;20069;-73
2022/04/06 07:51:36;;;;;;;3.28;1.80;;;;;;;14.30;46.93;99960.44;5005051;28;20097;-74
2022/04/06 07:54:03;;;;;;;5.10;2.60;;;;;;;14.30;47.16;99965.91;5004112;28;20061;-73
2022/04/06 07:56:29;;;;;;;3.53;2.15;;;;;;;14.30;47.26;99966.78;5008112;28;20464;-73
2022/04/06 07:58:56;;;;;;;4.43;1.70;;;;;;;14.32;46.61;99963.91;5001502;28;20077;-73
2022/04/06 08:01:28;;;;;;;4.63;1.98;;;;;;;14.31;47.01;99970.38;5011112;28;20057;-72
2022/04/06 08:03:55;;;;;;;4.07;1.75;;;;;;;14.33;47.04;99971.09;5002296;28;20468;-72
2022/04/06 08:06:24;;;;;;;5.57;2.10;;;;;;;14.31;46.95;99971.22;4999551;28;20100;-73
2022/04/06 08:08:53;;;;;;;3.25;1.60;;;;;;;14.31;46.84;99964.91;5006475;28;20089;-73
2022/04/06 08:11:20;;;;;;;2.75;1.60;;;;;;;14.32;47.08;99967.50;5000206;28;20082;-72
2022/04/06 08:13:48;;;;;;;4.22;1.77;;;;;;;14.32;47.17;99966.63;4999964;28;20127;-72
2022/04/06 08:16:15;;;;;;;4.05;1.73;;;;;;;14.32;47.10;99958.44;5008100;28;20050;-72
2022/04/06 08:18:41;;;;;;;4.45;1.70;;;;;;;14.32;46.69;99959.31;5000884;28;20058;-72
2022/04/06 08:21:09;;;;;;;3.15;1.73;;;;;;;14.33;47.09;99962.91;5007108;28;20545;-73
2022/04/06 08:23:36;;;;;;;4.55;1.50;;;;;;;14.34;46.90;99962.72;4998181;28;20498;-74
2022/04/06 08:26:03;;;;;;;3.83;1.85;;;;;;;14.36;46.80;99968.03;4997229;28;20050;-73
2022/04/06 08:28:30;;;;;;;2.63;1.40;;;;;;;14.36;46.50;99968.91;5004760;28;20080;-74
2022/04/06 08:30:57;;;;;;;3.58;1.40;;;;;;;14.36;46.85;99965.31;5008077;28;20050;-74
2022/04/06 08:33:24;;;;;;;3.70;1.67;;;;;;;14.39;46.48;99965.94;5003230;28;20093;-74
2022/04/06 08:35:53;;;;;;;3.60;1.42;;;;;;;14.39;46.44;99963.19;5007411;28;20662;-74
2022/04/06 08:38:20;;;;;;;3.17;1.40;;;;;;;14.42;46.34;99956.56;5010146;28;20100;-74
2022/04/06 08:40:48;;;;;;;3.28;1.45;;;;;;;14.43;45.96;99959.13;5010062;28;20056;-74
2022/04/06 08:43:17;;;;;;;4.10;1.40;;;;;;;14.42;45.87;99946.50;5009557;28;20100;-74
2022/04/06 08:45:44;;;;;;;3.78;1.40;;;;;;;14.43;45.65;99947.34;5009922;28;20568;-74
2022/04/06 08:48:11;;;;;;;4.65;1.40;;;;;;;14.43;45.79;99953.69;5007732;28;20081;-74
2022/04/06 08:50:39;;;;;;;3.30;1.30;;;;;;;14.44;45.81;99951.81;5007096;28;20055;-74
2022/04/06 08:53:07;;;;;;;3.65;1.70;;;;;;;14.45;45.72;99954.41;5000714;28;20061;-74
2022/04/06 08:55:35;;;;;;;4.18;1.70;;;;;;;14.46;45.56;99939.72;5005184;28;20053;-74
2022/04/06 08:58:03;;;;;;;3.20;1.20;;;;;;;14.46;45.47;99947.06;5011132;28;20141;-74
2022/04/06 09:00:30;;;;;;;3.13;1.27;;;;;;;14.48;45.26;99941.47;5008374;28;20046;-74
2022/04/06 09:02:57;;;;;;;4.13;1.50;;;;;;;14.46;45.13;99944.34;5010118;28;20488;-74
2022/04/06 09:05:28;;;;;;;3.45;1.30;;;;;;;14.49;45.34;99941.31;5008061;28;20555;-74
2022/04/06 09:07:55;;;;;;;3.30;1.17;;;;;;;14.49;45.82;99930.38;5000406;28;20112;-74
2022/04/06 09:10:31;;;;;;;2.80;1.25;;;;;;;14.54;44.69;99929.94;5007748;28;20111;-74
2022/04/06 09:13:20;;;;;;;2.80;1.17;;;;;;;14.54;44.74;99932.66;5010101;28;20057;-74
2022/04/06 09:15:53;;;;;;;4.90;1.60;;;;;;;14.55;45.32;99928.91;5008591;28;20053;-74
2022/04/06 09:18:31;;;;;;;2.88;1.35;;;;;;;14.59;44.60;99935.78;5009469;28;20045;-74
2022/04/06 09:21:00;;;;;;;3.42;1.40;;;;;;;14.59;45.19;99938.53;5010630;28;20125;-74
2022/04/06 09:23:31;;;;;;;5.18;2.05;;;;;;;14.63;45.14;99939.94;5009822;28;20053;-74
2022/04/06 09:26:06;;;;;;;3.80;1.55;;;;;;;14.67;44.59;99927.69;5001855;28;20050;-74
2022/04/06 09:28:40;;;;;;;3.42;1.30;;;;;;;14.67;45.25;99936.75;5004413;28;20519;-74
2022/04/06 09:31:08;;;;;;;4.55;1.50;;;;;;;14.70;45.30;99927.41;5005938;28;20481;-74
2022/04/06 09:33:41;;;;;;;3.15;1.20;;;;;;;14.73;44.99;99930.72;5007722;28;20112;-74
2022/04/06 09:36:21;;;;;;;3.17;1.20;;;;;;;14.78;43.99;99933.84;5005830;28;20103;-73
2022/04/06 09:38:50;;;;;;;2.80;1.20;;;;;;;14.78;45.09;99925.63;5004518;28;20085;-72
2022/04/06 09:41:18;;;;;;;2.75;1.00;;;;;;;14.79;45.04;99935.56;5005446;28;20046;-73
2022/04/06 09:43:47;;;;;;;2.22;1.10;;;;;;;14.84;44.65;99922.28;5002277;28;20414;-73
2022/04/06 09:49:09;;;;;;;2.80;1.15;;;;;;;14.89;44.94;99926.44;5003801;28;20066;-72
2022/04/06 09:51:37;;;;;;;2.42;1.20;;;;;;;14.92;44.40;99924.25;5002922;28;20057;-72
2022/04/06 09:54:06;;;;;;;3.05;1.10;;;;;;;14.94;44.42;99930.44;5007723;28;20049;-72
2022/04/06 09:56:34;;;;;;;3.13;1.15;;;;;;;14.97;44.21;99915.59;5001748;28;20046;-72
2022/04/06 09:59:07;;;;;;;2.90;1.52;;;;;;;15.00;44.53;99923.47;4998350;28;20078;-72
2022/04/06 10:01:38;;;;;;;2.47;1.25;;;;;;;15.02;44.45;99919.59;5008194;28;20066;-72
2022/04/06 10:04:09;;;;;;;2.42;1.48;;;;;;;15.05;43.95;99918.44;5007836;28;20058;-72
2022/04/06 10:06:38;;;;;;;4.95;1.40;;;;;;;15.06;44.18;99912.81;5003396;28;20465;-72
2022/04/06 10:09:07;;;;;;;4.25;1.38;;;;;;;15.05;44.26;99916.56;5004163;28;20057;-72
2022/04/06 10:11:36;;;;;;;4.15;1.48;;;;;;;15.08;44.11;99920.84;5000487;28;20088;-72
2022/04/06 10:14:05;;;;;;;2.83;1.10;;;;;;;15.08;44.04;99912.63;5006810;28;20057;-72
2022/04/06 10:16:34;;;;;;;4.03;1.25;;;;;;;15.09;44.13;99903.44;5008133;28;20049;-72
2022/04/06 10:19:03;;;;;;;3.75;1.35;;;;;;;15.09;43.77;99917.97;5004223;28;20477;-73
2022/04/06 10:21:39;;;;;;;2.90;1.08;;;;;;;15.11;43.20;99918.69;5006778;28;20103;-72
2022/04/06 10:24:24;;;;;;;2.75;1.23;;;;;;;15.09;43.19;99906.16;5008135;28;20050;-72
2022/04/06 10:27:06;;;;;;;4.35;1.23;;;;;;;15.11;43.05;99904.13;5014332;28;20038;-73
2022/04/06 10:30:12;;;;;;;3.73;1.60;;;;;;;15.09;43.50;99908.91;5007566;28;20425;-73
2022/04/06 10:32:48;;;;;;;3.05;1.13;;;;;;;15.11;43.24;99901.41;5005499;28;20081;-73
2022/04/06 10:35:31;;;;;;;2.55;1.08;;;;;;;15.14;43.40;99903.84;5007515;28;20103;-73
2022/04/06 10:37:58;;;;;;;2.50;1.20;;;;;;;15.11;43.73;99894.06;5008843;28;20053;-73
2022/04/06 10:40:26;;;;;;;2.97;1.20;;;;;;;15.12;43.71;99884.00;4999153;28;20054;-73
2022/04/06 10:42:53;;;;;;;5.10;1.45;;;;;;;15.13;44.14;99888.44;5003288;28;20115;-73
2022/04/06 10:45:29;;;;;;;2.38;1.30;;;;;;;15.16;43.09;99897.19;5007180;28;20046;-73
2022/04/06 10:48:18;;;;;;;4.22;1.30;;;;;;;15.13;43.52;99893.91;5003586;28;20053;-73
2022/04/06 10:50:49;;;;;;;3.47;1.30;;;;;;;15.11;43.82;99880.41;5007837;28;20477;-73
2022/04/06 10:53:19;;;;;;;3.33;1.70;;;;;;;15.12;43.57;99882.13;5006559;28;20486;-73
2022/04/06 10:55:59;;;;;;;2.22;1.27;;;;;;;15.12;43.52;99871.19;5006416;28;20116;-73
2022/04/06 10:58:26;;;;;;;2.95;1.30;;;;;;;15.10;43.81;99883.28;4997577;28;20045;-73
2022/04/06 11:01:16;;;;;;;3.30;1.27;;;;;;;15.12;43.35;99882.13;5007823;28;20060;-72
2022/04/06 11:03:59;;;;;;;2.60;1.15;;;;;;;15.13;43.55;99878.38;5006460;28;20078;-73
2022/04/06 11:06:41;;;;;;;2.67;1.38;;;;;;;15.13;43.63;99875.63;4992630;28;20046;-73
2022/04/06 11:12:16;;;;;;;3.05;1.38;;;;;;;15.12;44.12;99860.25;4996220;28;20049;-73
2022/04/06 11:14:48;;;;;;;4.95;1.48;;;;;;;15.17;44.09;99868.81;5002839;28;20062;-73
2022/04/06 11:17:42;;;;;;;4.53;1.70;;;;;;;15.19;43.67;99872.28;5007376;28;20128;-73
2022/04/06 11:20:31;;;;;;;2.40;1.15;;;;;;;15.20;44.00;99867.66;5003163;28;20497;-73
2022/04/06 11:22:58;;;;;;;2.65;1.40;;;;;;;15.21;44.31;99855.72;5008259;28;20112;-72
2022/04/06 11:25:28;;;;;;;3.75;1.50;;;;;;;15.23;43.91;99854.53;5001546;28;20088;-73
2022/04/06 11:28:15;;;;;;;4.35;1.63;;;;;;;15.26;43.72;99857.97;5010398;28;20053;-73
2022/04/06 11:30:44;;;;;;;4.13;1.23;;;;;;;15.29;44.06;99858.53;5003272;28;20506;-73
2022/04/06 11:33:11;;;;;;;2.47;1.25;;;;;;;15.28;44.12;99858.69;4995753;28;20121;-74
2022/04/06 11:35:38;;;;;;;4.03;1.40;;;;;;;15.30;43.95;99854.78;5001042;28;20137;-73
2022/04/06 11:38:07;;;;;;;3.92;1.63;;;;;;;15.32;44.22;99846.44;5002541;28;20054;-73
2022/04/06 11:40:39;;;;;;;2.65;1.30;;;;;;;15.35;44.26;99854.28;5002064;28;20050;-73
2022/04/06 11:43:06;;;;;;;3.00;1.33;;;;;;;15.33;44.27;99848.97;5009356;28;20049;-73
2022/04/06 11:45:44;;;;;;;3.78;1.20;;;;;;;15.40;43.75;99865.66;5002255;28;20084;-73